createdAt,value
2023-04-28T00:01:13.418Z,101178.72
2023-04-28T00:03:41.393Z,101170.72
2023-04-28T00:06:09.758Z,101167.13
2023-04-28T00:08:37.488Z,101167.13
2023-04-28T00:11:05.334Z,101155.53
2023-04-28T00:13:34.968Z,101152.84
2023-04-28T00:16:02.708Z,101150.16
2023-04-28T00:18:30.635Z,101159.97
2023-04-28T00:20:58.404Z,101147.47
2023-04-28T00:23:26.235Z,101146.59
2023-04-28T00:25:54.613Z,101135.91
2023-04-28T00:28:33.641Z,101131.47
2023-04-28T00:31:03.980Z,101126.16
2023-04-28T00:33:31.702Z,101119.94
2023-04-28T00:36:02.435Z,101113.72
2023-04-28T00:38:30.132Z,101107.53
2023-04-28T00:40:57.902Z,101107.53
2023-04-28T00:43:25.657Z,101103.16
2023-04-28T00:45:53.885Z,101110.28
2023-04-28T00:48:23.869Z,101109.41
2023-04-28T00:50:52.517Z,101106.72
2023-04-28T00:53:21.205Z,101110.28
2023-04-28T00:55:50.251Z,101107.59
2023-04-28T00:58:17.950Z,101104.06
2023-04-28T01:00:45.616Z,101100.47
2023-04-28T01:03:13.640Z,101107.63
2023-04-28T01:05:42.957Z,101107.63
2023-04-28T01:08:10.653Z,101101.41
2023-04-28T01:10:45.154Z,101095.16
2023-04-28T01:13:12.852Z,101090.72
2023-04-28T01:15:40.595Z,101083.59
2023-04-28T01:18:08.380Z,101086.31
2023-04-28T01:20:36.113Z,101082.78
2023-04-28T01:23:05.226Z,101075.63
2023-04-28T01:25:34.205Z,101078.31
2023-04-28T01:28:01.898Z,101090.81
2023-04-28T01:30:29.604Z,101078.31
2023-04-28T01:32:57.430Z,101087.25
2023-04-28T01:35:25.274Z,101082.78
2023-04-28T01:37:52.980Z,101081.94
2023-04-28T01:40:20.777Z,101092.63
2023-04-28T01:42:49.865Z,101088.22
2023-04-28T01:45:17.831Z,101089.09
2023-04-28T01:47:45.668Z,101090.91
2023-04-28T01:50:13.401Z,101073.97
2023-04-28T01:52:41.122Z,101082.94
2023-04-28T01:56:04.146Z,101075.78
2023-04-28T01:58:33.196Z,101072.22
2023-04-28T02:01:00.917Z,101064.22
2023-04-28T02:03:29.151Z,101055.38
2023-04-28T02:05:56.979Z,101059.81
2023-04-28T02:08:24.802Z,101056.28
2023-04-28T02:10:52.632Z,101059.84
2023-04-28T02:13:20.358Z,101061.66
2023-04-28T02:15:49.421Z,101054.53
2023-04-28T02:18:17.188Z,101042.97
2023-04-28T02:20:44.853Z,101044.78
2023-04-28T02:23:12.585Z,101045.69
2023-04-28T02:25:40.252Z,101039.44
2023-04-28T02:28:08.041Z,101044.81
2023-04-28T02:30:35.793Z,101049.28
2023-04-28T02:33:05.060Z,101043.94
2023-04-28T02:35:32.880Z,101043.94
2023-04-28T02:38:00.540Z,101048.38
2023-04-28T02:40:31.355Z,101044.81
2023-04-28T02:42:59.140Z,101041.25
2023-04-28T02:45:27.237Z,101037.66
2023-04-28T02:47:55.035Z,101036.78
2023-04-28T02:50:24.352Z,101034.13
2023-04-28T02:52:52.124Z,101031.47
2023-04-28T02:55:24.133Z,101038.59
2023-04-28T02:57:52.157Z,101035.00
2023-04-28T03:00:20.576Z,101036.78
2023-04-28T03:02:48.363Z,101026.09
2023-04-28T03:05:16.384Z,101041.25
2023-04-28T03:07:45.528Z,101029.66
2023-04-28T03:10:13.379Z,101036.75
2023-04-28T03:12:41.236Z,101031.41
2023-04-28T03:15:11.095Z,101027.00
2023-04-28T03:17:42.133Z,101015.41
2023-04-28T03:20:11.460Z,101015.41
2023-04-28T03:22:39.230Z,101006.50
2023-04-28T03:25:09.155Z,101001.19
2023-04-28T03:27:36.952Z,101001.19
2023-04-28T03:30:05.305Z,100992.25
2023-04-28T03:32:33.187Z,100993.19
2023-04-28T03:35:00.917Z,100987.84
2023-04-28T03:37:28.627Z,100974.50
2023-04-28T03:39:56.442Z,100970.91
2023-04-28T03:42:25.592Z,100975.38
2023-04-28T03:44:53.360Z,100972.69
2023-04-28T03:47:21.316Z,100971.81
2023-04-28T03:49:49.075Z,100967.34
2023-04-28T03:52:16.906Z,100956.66
2023-04-28T03:54:44.683Z,100955.78
2023-04-28T03:57:12.496Z,100945.09
2023-04-28T03:59:41.718Z,100945.09
2023-04-28T04:02:09.510Z,100937.13
2023-04-28T04:04:37.620Z,100928.25
2023-04-28T04:07:05.742Z,100922.91
2023-04-28T04:09:33.533Z,100928.25
2023-04-28T04:12:01.331Z,100927.38
2023-04-28T04:14:29.060Z,100946.94
2023-04-28T04:16:58.174Z,100960.25
2023-04-28T04:19:26.555Z,100960.19
2023-04-28T04:21:54.553Z,100953.97
2023-04-28T04:24:22.335Z,100943.28
2023-04-28T04:26:50.216Z,100937.03
2023-04-28T04:29:18.016Z,100932.56
2023-04-28T04:31:46.291Z,100942.38
2023-04-28T04:34:15.749Z,100961.06
2023-04-28T04:36:44.180Z,100950.38
2023-04-28T04:39:11.922Z,100949.50
2023-04-28T04:41:39.754Z,100942.41
2023-04-28T04:44:07.498Z,100933.50
2023-04-28T04:46:35.384Z,100927.19
2023-04-28T04:49:03.217Z,100917.41
2023-04-28T04:51:32.395Z,100920.94
2023-04-28T04:54:00.115Z,100920.06
2023-04-28T04:56:27.845Z,100922.72
2023-04-28T04:58:55.642Z,100923.59
2023-04-28T05:01:23.358Z,100925.41
2023-04-28T05:03:51.301Z,100924.53
2023-04-28T05:06:19.330Z,100928.09
2023-04-28T05:08:48.483Z,100931.63
2023-04-28T05:11:16.931Z,100919.13
2023-04-28T05:13:44.694Z,100921.78
2023-04-28T05:16:12.566Z,100924.38
2023-04-28T05:18:40.509Z,100925.25
2023-04-28T05:21:08.282Z,100920.78
2023-04-28T05:23:36.103Z,100922.53
2023-04-28T05:26:30.782Z,100917.16
2023-04-28T05:28:58.482Z,100906.47
2023-04-28T05:31:26.459Z,100895.78
2023-04-28T05:33:54.335Z,100906.44
2023-04-28T05:36:31.476Z,100903.75
2023-04-28T05:39:00.582Z,100891.19
2023-04-28T05:41:28.475Z,100890.25
2023-04-28T05:43:57.892Z,100890.22
2023-04-28T05:46:30.822Z,100886.66
2023-04-28T05:48:59.387Z,100890.22
2023-04-28T05:51:29.896Z,100887.50
2023-04-28T05:53:58.243Z,100892.78
2023-04-28T05:56:26.318Z,100890.03
2023-04-28T05:59:15.589Z,100894.44
2023-04-28T06:02:08.557Z,100884.63
2023-04-28T06:04:57.042Z,100884.63
2023-04-28T06:07:45.484Z,100881.06
2023-04-28T06:10:33.811Z,100887.28
2023-04-28T06:13:25.609Z,100880.13
2023-04-28T06:16:17.467Z,100887.22
2023-04-28T06:19:07.660Z,100881.88
2023-04-28T06:22:44.871Z,100880.09
2023-04-28T06:26:23.675Z,100880.09
2023-04-28T06:29:59.543Z,100879.16
2023-04-28T06:33:33.665Z,100879.16
2023-04-28T06:36:02.984Z,100880.91
2023-04-28T06:38:31.090Z,100878.19
2023-04-28T06:40:58.873Z,100873.66
2023-04-28T06:43:28.313Z,100870.00
2023-04-28T06:45:56.273Z,100860.09
2023-04-28T06:48:26.103Z,100858.13
2023-04-28T06:50:54.003Z,100859.69
2023-04-28T06:53:23.554Z,100855.94
2023-04-28T06:55:51.688Z,100863.78
2023-04-28T06:58:20.938Z,100869.84
2023-04-28T07:00:49.091Z,100866.13
2023-04-28T07:03:17.151Z,100864.16
2023-04-28T07:05:45.182Z,100865.75
2023-04-28T07:08:13.428Z,100855.75
2023-04-28T07:10:43.083Z,100845.72
2023-04-28T07:13:11.356Z,100845.50
2023-04-28T07:15:39.654Z,100847.06
2023-04-28T07:18:07.692Z,100851.19
2023-04-28T07:20:35.800Z,100850.97
2023-04-28T07:23:03.817Z,100839.16
2023-04-28T07:25:32.853Z,100841.66
2023-04-28T07:28:05.091Z,100853.06
2023-04-28T07:30:33.110Z,100860.94
2023-04-28T07:33:01.334Z,100859.03
2023-04-28T07:35:29.748Z,100859.84
2023-04-28T07:37:57.960Z,100865.91
2023-04-28T07:40:25.857Z,100847.84
2023-04-28T07:42:57.455Z,100858.38
2023-04-28T07:45:27.373Z,100855.53
2023-04-28T07:47:55.174Z,100860.03
2023-04-28T07:50:23.498Z,100864.41
2023-04-28T07:52:52.079Z,100866.19
2023-04-28T07:55:19.919Z,100863.50
2023-04-28T07:57:47.800Z,100871.69
2023-04-28T08:00:16.733Z,100867.28
2023-04-28T08:02:46.185Z,100862.75
2023-04-28T08:05:14.134Z,100851.06
2023-04-28T08:07:42.324Z,100849.13
2023-04-28T08:10:11.752Z,100847.22
2023-04-28T08:12:40.966Z,100847.16
2023-04-28T08:15:11.110Z,100844.38
2023-04-28T08:17:39.131Z,100836.06
2023-04-28T08:20:09.994Z,100842.09
2023-04-28T08:22:38.144Z,100842.03
2023-04-28T08:25:06.846Z,100833.94
2023-04-28T08:27:38.217Z,100836.53
2023-04-28T08:30:07.243Z,100838.09
2023-04-28T08:32:37.123Z,100834.09
2023-04-28T08:35:05.840Z,100833.78
2023-04-28T08:37:38.571Z,100838.00
2023-04-28T08:40:10.174Z,100833.97
2023-04-28T08:42:39.603Z,100844.25
2023-04-28T08:45:09.752Z,100834.09
2023-04-28T08:47:39.728Z,100832.94
2023-04-28T08:50:09.545Z,100834.34
2023-04-28T08:52:39.034Z,100838.44
2023-04-28T08:55:08.897Z,100830.91
2023-04-28T08:57:41.374Z,100835.16
2023-04-28T09:00:10.561Z,100845.78
2023-04-28T09:02:41.640Z,100847.72
2023-04-28T09:05:10.594Z,100840.81
2023-04-28T09:07:40.337Z,100844.63
2023-04-28T09:10:19.446Z,100836.81
2023-04-28T09:12:47.978Z,100836.91
2023-04-28T09:15:34.086Z,100837.63
2023-04-28T09:18:02.591Z,100835.69
2023-04-28T09:20:33.383Z,100834.72
2023-04-28T09:23:17.453Z,100833.75
2023-04-28T09:25:59.851Z,100840.91
2023-04-28T09:28:28.472Z,100831.22
2023-04-28T09:30:57.190Z,100828.88
2023-04-28T09:33:25.421Z,100837.06
2023-04-28T09:35:53.596Z,100835.13
2023-04-28T09:38:24.250Z,100831.66
2023-04-28T09:40:58.453Z,100834.31
2023-04-28T09:43:31.348Z,100840.56
2023-04-28T09:46:01.023Z,100827.03
2023-04-28T09:48:31.002Z,100836.81
2023-04-28T09:50:59.742Z,100829.69
2023-04-28T09:53:29.837Z,100824.34
2023-04-28T09:55:59.083Z,100818.09
2023-04-28T09:58:32.406Z,100822.72
2023-04-28T10:01:01.822Z,100828.06
2023-04-28T10:03:30.880Z,100823.44
2023-04-28T10:06:00.058Z,100818.75
2023-04-28T10:08:29.719Z,100822.16
2023-04-28T10:10:58.589Z,100815.84
2023-04-28T10:13:26.768Z,100818.50
2023-04-28T10:15:56.045Z,100817.50
2023-04-28T10:18:24.958Z,100814.13
2023-04-28T10:20:57.753Z,100811.56
2023-04-28T10:23:46.950Z,100814.31
2023-04-28T10:26:19.346Z,100809.59
2023-04-28T10:28:48.540Z,100818.50
2023-04-28T10:31:17.740Z,100820.88
2023-04-28T10:33:45.899Z,100816.28
2023-04-28T10:36:49.945Z,100816.44
2023-04-28T10:39:19.308Z,100817.47
2023-04-28T10:41:49.022Z,100808.53
2023-04-28T10:44:45.266Z,100805.72
2023-04-28T10:47:13.261Z,100814.63
2023-04-28T10:50:06.897Z,100816.44
2023-04-28T10:52:50.180Z,100814.81
2023-04-28T10:55:37.418Z,100822.72
2023-04-28T10:58:32.925Z,100815.44
2023-04-28T11:01:29.466Z,100818.66
2023-04-28T11:04:03.434Z,100819.25
2023-04-28T11:06:34.603Z,100814.34
2023-04-28T11:09:04.056Z,100814.22
2023-04-28T11:11:35.198Z,100820.66
2023-04-28T11:14:35.190Z,100822.88
2023-04-28T11:17:04.243Z,100808.72
2023-04-28T11:19:33.504Z,100816.94
2023-04-28T11:22:03.142Z,100825.03
2023-04-28T11:24:31.919Z,100813.28
2023-04-28T11:27:02.390Z,100822.16
2023-04-28T11:29:35.293Z,100818.28
2023-04-28T11:32:05.868Z,100807.28
2023-04-28T11:34:34.561Z,100809.88
2023-04-28T11:37:08.550Z,100811.97
2023-04-28T11:39:37.271Z,100815.00
2023-04-28T11:42:11.562Z,100809.72
2023-04-28T11:44:39.486Z,100807.72
2023-04-28T11:47:08.284Z,100817.09
2023-04-28T11:49:43.981Z,100811.13
2023-04-28T11:52:12.440Z,100818.06
2023-04-28T11:54:43.285Z,100803.69
2023-04-28T11:57:21.167Z,100809.91
2023-04-28T11:59:49.913Z,100807.22
2023-04-28T12:02:26.673Z,100811.53
2023-04-28T12:04:54.677Z,100806.00
2023-04-28T12:07:22.595Z,100807.66
2023-04-28T12:10:11.265Z,100818.19
2023-04-28T12:12:50.821Z,100814.06
2023-04-28T12:15:20.861Z,100813.00
2023-04-28T12:17:50.703Z,100806.91
2023-04-28T12:20:37.315Z,100807.13
2023-04-28T12:23:05.662Z,100806.56
2023-04-28T12:25:35.316Z,100800.81
2023-04-28T12:28:07.773Z,100801.88
2023-04-28T12:30:38.892Z,100806.75
2023-04-28T12:33:06.921Z,100800.75
2023-04-28T12:35:34.743Z,100799.75
2023-04-28T12:38:02.592Z,100792.91
2023-04-28T12:40:30.530Z,100799.16
2023-04-28T12:42:58.497Z,100790.84
2023-04-28T12:45:27.807Z,100793.06
2023-04-28T12:47:57.010Z,100787.00
2023-04-28T12:50:25.696Z,100777.63
2023-04-28T12:52:53.674Z,100784.63
2023-04-28T12:55:21.631Z,100772.72
2023-04-28T12:57:49.519Z,100781.81
2023-04-28T13:00:21.146Z,100780.06
2023-04-28T13:02:51.426Z,100788.09
2023-04-28T13:05:20.614Z,100781.34
2023-04-28T13:07:49.477Z,100786.31
2023-04-28T13:10:18.286Z,100783.94
2023-04-28T13:12:46.153Z,100782.31
2023-04-28T13:15:14.025Z,100775.91
2023-04-28T13:17:42.074Z,100772.13
2023-04-28T13:20:14.054Z,100772.19
2023-04-28T13:22:42.012Z,100765.50
2023-04-28T13:25:11.590Z,100762.38
2023-04-28T13:27:41.299Z,100757.34
2023-04-28T13:30:11.777Z,100756.91
2023-04-28T13:32:39.774Z,100756.56
2023-04-28T13:35:09.573Z,100750.72
2023-04-28T13:37:42.708Z,100760.34
2023-04-28T13:40:11.731Z,100750.81
2023-04-28T13:42:39.669Z,100746.22
2023-04-28T13:45:08.202Z,100744.75
2023-04-28T13:47:36.186Z,100743.34
2023-04-28T13:50:04.305Z,100745.91
2023-04-28T13:52:32.203Z,100741.44
2023-04-28T13:55:01.843Z,100742.66
2023-04-28T13:57:29.901Z,100738.19
2023-04-28T13:59:57.888Z,100748.09
2023-04-28T14:02:27.464Z,100741.47
2023-04-28T14:04:55.625Z,100742.03
2023-04-28T14:07:23.702Z,100745.06
2023-04-28T14:09:51.575Z,100736.41
2023-04-28T14:12:20.854Z,100739.31
2023-04-28T14:14:49.491Z,100737.38
2023-04-28T14:17:17.590Z,100735.97
2023-04-28T14:19:46.030Z,100736.03
2023-04-28T14:22:13.984Z,100734.22
2023-04-28T14:24:43.093Z,100735.53
2023-04-28T14:27:11.222Z,100732.69
2023-04-28T14:29:42.091Z,100741.91
2023-04-28T14:32:09.898Z,100739.97
2023-04-28T14:34:38.021Z,100741.31
2023-04-28T14:37:05.866Z,100743.44
2023-04-28T14:39:33.789Z,100743.91
2023-04-28T14:42:01.870Z,100742.25
2023-04-28T14:44:29.722Z,100744.84
2023-04-28T14:46:59.172Z,100753.66
2023-04-28T14:49:27.626Z,100754.59
2023-04-28T14:51:55.741Z,100749.66
2023-04-28T14:54:23.668Z,100752.72
2023-04-28T14:56:51.623Z,100760.75
2023-04-28T14:59:20.500Z,100776.69
2023-04-28T15:01:48.513Z,100774.88
2023-04-28T15:04:17.926Z,100775.50
2023-04-28T15:06:46.548Z,100791.66
2023-04-28T15:09:14.393Z,100801.63
2023-04-28T15:11:42.384Z,100803.63
2023-04-28T15:14:10.359Z,100806.47
2023-04-28T15:16:38.423Z,100806.22
2023-04-28T15:19:06.817Z,100805.91
2023-04-28T15:21:38.146Z,100810.16
2023-04-28T15:24:06.631Z,100818.53
2023-04-28T15:26:36.662Z,100812.03
2023-04-28T15:29:04.612Z,100812.75
2023-04-28T15:31:33.027Z,100807.88
2023-04-28T15:34:01.057Z,100812.03
2023-04-28T15:36:29.231Z,100816.38
2023-04-28T15:38:58.532Z,100809.09
2023-04-28T15:41:26.820Z,100814.91
2023-04-28T15:43:55.926Z,100822.31
2023-04-28T15:46:23.903Z,100821.00
2023-04-28T15:48:52.407Z,100823.19
2023-04-28T15:51:20.374Z,100832.25
2023-04-28T15:53:50.671Z,100831.56
2023-04-28T15:56:20.172Z,100835.03
2023-04-28T15:58:48.767Z,100842.50
2023-04-28T16:01:17.201Z,100836.81
2023-04-28T16:03:47.912Z,100833.84
2023-04-28T16:06:16.263Z,100843.72
2023-04-28T16:08:44.306Z,100847.94
2023-04-28T16:11:17.608Z,100839.72
2023-04-28T16:13:47.013Z,100849.53
2023-04-28T16:16:15.021Z,100839.66
2023-04-28T16:18:44.809Z,100850.25
2023-04-28T16:21:16.452Z,100846.94
2023-04-28T16:23:44.443Z,100850.59
2023-04-28T16:26:12.380Z,100852.78
2023-04-28T16:28:40.299Z,100865.22
2023-04-28T16:31:17.206Z,100861.06
2023-04-28T16:33:45.128Z,100863.31
2023-04-28T16:36:13.083Z,100859.81
2023-04-28T16:38:41.178Z,100861.66
2023-04-28T16:41:09.147Z,100862.09
2023-04-28T16:43:38.317Z,100859.94
2023-04-28T16:46:07.740Z,100855.53
2023-04-28T16:48:37.313Z,100863.00
2023-04-28T16:51:08.376Z,100858.53
2023-04-28T16:53:36.717Z,100861.47
2023-04-28T16:56:04.981Z,100859.81
2023-04-28T16:58:34.664Z,100854.91
2023-04-28T17:01:02.644Z,100862.06
2023-04-28T17:03:31.089Z,100872.75
2023-04-28T17:06:04.300Z,100864.59
2023-04-28T17:08:32.512Z,100867.59
2023-04-28T17:11:01.888Z,100872.75
2023-04-28T17:13:29.911Z,100870.06
2023-04-28T17:15:58.590Z,100870.28
2023-04-28T17:18:26.936Z,100865.81
2023-04-28T17:20:54.967Z,100870.34
2023-04-28T17:23:24.312Z,100870.44
2023-04-28T17:25:52.227Z,100873.41
2023-04-28T17:28:20.306Z,100869.91
2023-04-28T17:30:48.264Z,100870.78
2023-04-28T17:33:16.464Z,100868.28
2023-04-28T17:35:44.522Z,100874.84
2023-04-28T17:38:12.590Z,100885.78
2023-04-28T17:40:41.975Z,100887.78
2023-04-28T17:43:13.206Z,100894.16
2023-04-28T17:45:41.735Z,100894.19
2023-04-28T17:48:09.820Z,100892.69
2023-04-28T17:50:38.439Z,100900.22
2023-04-28T17:53:08.810Z,100895.97
2023-04-28T17:55:36.849Z,100892.50
2023-04-28T17:58:06.273Z,100903.56
2023-04-28T18:00:34.765Z,100904.75
2023-04-28T18:03:03.674Z,100909.22
2023-04-28T18:05:35.380Z,100908.25
2023-04-28T18:08:04.061Z,100914.56
2023-04-28T18:10:32.297Z,100915.53
2023-04-28T18:13:01.958Z,100915.56
2023-04-28T18:15:31.484Z,100910.41
2023-04-28T18:17:59.942Z,100912.28
2023-04-28T18:20:27.947Z,100907.94
2023-04-28T18:22:56.563Z,100912.53
2023-04-28T18:25:24.553Z,100915.19
2023-04-28T18:27:54.034Z,100924.22
2023-04-28T18:30:22.322Z,100920.78
2023-04-28T18:32:52.314Z,100912.88
2023-04-28T18:35:20.373Z,100927.31
2023-04-28T18:37:48.565Z,100918.47
2023-04-28T18:40:16.732Z,100929.25
2023-04-28T18:42:44.664Z,100932.09
2023-04-28T18:45:13.053Z,100922.22
2023-04-28T18:47:41.233Z,100919.59
2023-04-28T18:50:11.518Z,100926.75
2023-04-28T18:52:39.861Z,100931.22
2023-04-28T18:55:08.758Z,100927.75
2023-04-28T18:57:37.056Z,100927.84
2023-04-28T19:00:07.267Z,100928.72
2023-04-28T19:02:51.889Z,100932.38
2023-04-28T19:05:25.617Z,100926.19
2023-04-28T19:07:53.767Z,100933.47
2023-04-28T19:10:21.805Z,100929.94
2023-04-28T19:12:51.740Z,100939.88
2023-04-28T19:15:19.673Z,100943.53
2023-04-28T19:17:47.732Z,100942.81
2023-04-28T19:20:16.064Z,100953.59
2023-04-28T19:22:48.241Z,100946.41
2023-04-28T19:25:17.790Z,100949.06
2023-04-28T19:27:47.126Z,100948.09
2023-04-28T19:30:16.837Z,100954.41
2023-04-28T19:32:44.994Z,100958.88
2023-04-28T19:35:13.313Z,100959.78
2023-04-28T19:37:46.028Z,100953.44
2023-04-28T19:40:18.973Z,100963.25
2023-04-28T19:42:46.988Z,100961.56
2023-04-28T19:45:17.036Z,100950.81
2023-04-28T19:47:45.286Z,100959.06
2023-04-28T19:50:13.343Z,100957.44
2023-04-28T19:52:41.764Z,100962.81
2023-04-28T19:55:12.454Z,100963.84
2023-04-28T19:57:44.484Z,100967.50
2023-04-28T20:00:15.933Z,100981.97
2023-04-28T20:02:44.549Z,100982.06
2023-04-28T20:05:15.142Z,100970.69
2023-04-28T20:07:45.109Z,100979.75
2023-04-28T20:10:13.452Z,100982.34
2023-04-28T20:12:44.427Z,100984.16
2023-04-28T20:15:12.780Z,100986.97
2023-04-28T20:17:40.905Z,100984.44
2023-04-28T20:20:10.146Z,100987.22
2023-04-28T20:22:40.889Z,100986.38
2023-04-28T20:25:21.140Z,100981.13
2023-04-28T20:27:57.868Z,100979.41
2023-04-28T20:30:27.772Z,100991.22
2023-04-28T20:32:55.856Z,100988.53
2023-04-28T20:35:24.740Z,100990.31
2023-04-28T20:37:52.884Z,100995.81
2023-04-28T20:40:21.055Z,100990.41
2023-04-28T20:42:50.797Z,100989.47
2023-04-28T20:45:21.258Z,100992.22
2023-04-28T20:47:49.313Z,100993.13
2023-04-28T20:50:17.770Z,101005.66
2023-04-28T20:52:46.121Z,100995.81
2023-04-28T20:55:14.497Z,100993.03
2023-04-28T20:57:46.320Z,100993.91
2023-04-28T21:00:16.167Z,100985.03
2023-04-28T21:05:13.428Z,100996.84
2023-04-28T21:07:41.401Z,100990.66
2023-04-28T21:10:10.735Z,100996.91
2023-04-28T21:12:38.999Z,100992.44
2023-04-28T21:15:10.070Z,100997.84
2023-04-28T21:17:46.712Z,100997.13
2023-04-28T21:20:22.945Z,101002.56
2023-04-28T21:22:51.118Z,101004.41
2023-04-28T21:25:21.589Z,101011.53
2023-04-28T21:27:50.974Z,101013.34
2023-04-28T21:30:20.893Z,101015.09
2023-04-28T21:32:57.789Z,101019.56
2023-04-28T21:35:27.729Z,101017.31
2023-04-28T21:37:55.646Z,101019.22
2023-04-28T21:40:23.762Z,101022.81
2023-04-28T21:42:51.719Z,101021.88
2023-04-28T21:45:19.438Z,101026.34
2023-04-28T21:47:47.372Z,101029.81
2023-04-28T21:50:16.977Z,101033.72
2023-04-28T21:52:45.060Z,101030.38
2023-04-28T21:55:13.079Z,101031.31
2023-04-28T21:57:41.085Z,101029.75
2023-04-28T22:00:12.573Z,101028.84
2023-04-28T22:02:41.310Z,101032.63
2023-04-28T22:05:10.689Z,101025.47
2023-04-28T22:07:40.086Z,101028.03
2023-04-28T22:10:09.364Z,101021.06
2023-04-28T22:12:40.358Z,101026.47
2023-04-28T22:15:09.456Z,101034.50
2023-04-28T22:17:37.581Z,101039.97
2023-04-28T22:20:06.291Z,101038.13
2023-04-28T22:22:36.434Z,101045.31
2023-04-28T22:25:06.576Z,101043.69
2023-04-28T22:27:34.425Z,101053.44
2023-04-28T22:30:02.364Z,101051.56
2023-04-28T22:32:30.241Z,101057.69
2023-04-28T22:34:58.117Z,101061.31
2023-04-28T22:37:26.014Z,101062.41
2023-04-28T22:39:53.858Z,101063.44
2023-04-28T22:42:23.129Z,101063.44
2023-04-28T22:44:50.940Z,101066.91
2023-04-28T22:47:18.764Z,101067.00
2023-04-28T22:49:46.599Z,101071.78
2023-04-28T22:52:23.369Z,101076.28
2023-04-28T22:55:08.800Z,101066.59
2023-04-28T22:57:38.411Z,101079.22
2023-04-28T23:00:07.460Z,101078.31
2023-04-28T23:02:35.621Z,101077.44
2023-04-28T23:05:04.097Z,101073.88
2023-04-28T23:07:31.976Z,101074.88
2023-04-28T23:09:59.707Z,101079.34
2023-04-28T23:12:27.634Z,101080.19
2023-04-28T23:14:56.820Z,101081.06
2023-04-28T23:17:25.123Z,101085.56
2023-04-28T23:19:52.973Z,101085.47
2023-04-28T23:22:20.821Z,101082.88
2023-04-28T23:24:48.574Z,101087.34
2023-04-28T23:27:16.381Z,101093.66
2023-04-28T23:29:44.052Z,101093.63
2023-04-28T23:32:13.655Z,101090.06
2023-04-28T23:34:42.735Z,101095.53
2023-04-28T23:37:10.612Z,101100.06
2023-04-28T23:39:38.393Z,101099.38
2023-04-28T23:42:06.217Z,101102.13
2023-04-28T23:44:34.005Z,101096.75
2023-04-28T23:47:01.781Z,101104.72
2023-04-28T23:49:31.128Z,101105.84
2023-04-28T23:51:59.327Z,101105.00
2023-04-28T23:54:27.138Z,101100.56
2023-04-28T23:56:55.558Z,101108.50
2023-04-28T23:59:23.339Z,101110.25
